Time,TemperatureF,DewpointF,PressureIn,WindDirection,WindDirectionDegrees,WindSpeedMPH,WindSpeedGustMPH,Humidity,HourlyPrecipIn,Conditions,Clouds,dailyrainin,SoftwareType,DateUTC
2013-07-05 09:17:00,81.2,72.5,29.96,East,96,3.0,9.0,75,0.00,,---,0.00,VWS V14.01,2013-07-05 14:17:00,
2013-07-05 09:18:00,84.1,75.3,29.98,ENE,66,0.0,9.0,75,0.00,,---,0.00,VWS V14.01,2013-07-05 14:18:00,
2013-07-05 09:23:00,84.6,75.4,29.98,ESE,105,1.0,9.0,74,0.00,,---,0.00,VWS V14.01,2013-07-05 14:23:00,
2013-07-05 09:28:00,84.6,75.0,29.98,NE,39,0.0,9.0,73,0.00,,---,0.00,VWS V14.01,2013-07-05 14:28:00,
2013-07-05 09:33:00,84.7,75.5,29.98,ENE,70,4.0,9.0,74,0.00,,---,0.00,VWS V14.01,2013-07-05 14:33:00,
2013-07-05 09:38:00,84.4,75.2,29.98,East,79,4.0,9.0,74,0.00,,---,0.00,VWS V14.01,2013-07-05 14:38:00,
2013-07-05 09:44:00,84.3,75.1,29.98,ENE,78,2.0,9.0,74,0.00,,---,0.00,VWS V14.01,2013-07-05 14:44:00,
2013-07-05 09:49:00,84.3,75.5,29.98,NE,50,6.0,9.0,75,0.00,,---,0.00,VWS V14.01,2013-07-05 14:49:00,
2013-07-05 09:54:00,84.5,76.1,29.97,ENE,65,3.0,9.0,76,0.00,,---,0.00,VWS V14.01,2013-07-05 14:54:00,
2013-07-05 09:59:00,85.0,76.2,29.97,ESE,110,0.0,9.0,75,0.00,,---,0.00,VWS V14.01,2013-07-05 14:59:00,
2013-07-05 10:04:00,85.0,75.8,29.97,East,98,0.0,6.0,74,0.00,,---,0.00,VWS V14.01,2013-07-05 15:04:00,
2013-07-05 10:10:00,85.2,76.4,29.97,ENE,63,3.0,7.0,75,0.00,,---,0.00,VWS V14.01,2013-07-05 15:10:00,
2013-07-05 10:15:00,84.7,75.9,29.97,SE,130,4.0,7.0,75,0.00,,---,0.00,VWS V14.01,2013-07-05 15:15:00,
2013-07-05 10:20:00,84.8,75.6,29.97,East,93,3.0,7.0,74,0.00,,---,0.00,VWS V14.01,2013-07-05 15:20:00,
2013-07-05 10:25:00,84.7,75.5,29.97,ESE,111,4.0,7.0,74,0.00,,---,0.00,VWS V14.01,2013-07-05 15:25:00,
2013-07-05 10:30:00,84.7,75.5,29.97,SE,136,0.0,7.0,74,0.00,,---,0.00,VWS V14.01,2013-07-05 15:30:00,
2013-07-05 10:35:00,85.0,75.8,29.97,ESE,108,4.0,7.0,74,0.00,,---,0.00,VWS V14.01,2013-07-05 15:35:00,
2013-07-05 10:40:00,85.0,75.8,29.97,ESE,110,2.0,7.0,74,0.00,,---,0.00,VWS V14.01,2013-07-05 15:40:00,
2013-07-05 10:45:00,85.0,75.8,29.97,East,79,2.0,7.0,74,0.00,,---,0.00,VWS V14.01,2013-07-05 15:45:00,
2013-07-05 10:49:00,85.3,76.1,29.97,East,82,7.0,8.0,74,0.00,,---,0.00,VWS V14.01,2013-07-05 15:49:00,
2013-07-05 10:54:00,85.4,76.2,29.97,ENE,74,9.0,9.0,74,0.00,,---,0.00,VWS V14.01,2013-07-05 15:54:00,
2013-07-05 10:59:00,85.1,75.5,29.97,ENE,77,7.0,11.0,73,0.00,,---,0.00,VWS V14.01,2013-07-05 15:59:00,
2013-07-05 11:04:00,85.4,75.8,29.97,ESE,103,2.0,7.0,73,0.00,,---,0.00,VWS V14.01,2013-07-05 16:04:00,
2013-07-05 11:09:00,84.9,75.7,29.97,East,88,2.0,8.0,74,0.00,,---,0.00,VWS V14.01,2013-07-05 16:09:00,
2013-07-05 11:15:00,84.8,75.6,29.97,ESE,112,3.0,8.0,74,0.00,,---,0.00,VWS V14.01,2013-07-05 16:15:00,
2013-07-05 11:20:00,84.9,75.7,29.97,East,90,5.0,8.0,74,0.00,,---,0.00,VWS V14.01,2013-07-05 16:20:00,
2013-07-05 11:25:00,84.9,75.7,29.97,ENE,77,6.0,10.0,74,0.00,,---,0.00,VWS V14.01,2013-07-05 16:25:00,
2013-07-05 11:30:00,85.2,75.6,29.97,ENE,78,7.0,11.0,73,0.00,,---,0.00,VWS V14.01,2013-07-05 16:30:00,
2013-07-05 11:35:00,85.2,75.6,29.97,ESE,122,4.0,11.0,73,0.00,,---,0.00,VWS V14.01,2013-07-05 16:35:00,
2013-07-05 11:40:00,85.6,76.0,29.97,East,94,2.0,11.0,73,0.00,,---,0.00,VWS V14.01,2013-07-05 16:40:00,
2013-07-05 11:45:00,85.2,75.6,29.97,East,82,5.0,11.0,73,0.00,,---,0.00,VWS V14.01,2013-07-05 16:45:00,
2013-07-05 11:50:00,85.4,75.3,29.97,SE,139,3.0,11.0,72,0.00,,---,0.00,VWS V14.01,2013-07-05 16:50:00,
2013-07-05 11:55:00,85.6,75.1,29.97,ENE,61,6.0,11.0,71,0.00,,---,0.00,VWS V14.01,2013-07-05 16:55:00,
2013-07-05 12:00:00,85.7,75.2,29.97,ENE,59,5.0,11.0,71,0.00,,---,0.00,VWS V14.01,2013-07-05 17:00:00,
2013-07-05 12:05:00,85.8,74.9,29.97,East,96,6.0,9.0,70,0.00,,---,0.00,VWS V14.01,2013-07-05 17:05:00,
2013-07-05 12:10:00,85.8,75.7,29.97,East,86,9.0,11.0,72,0.00,,---,0.00,VWS V14.01,2013-07-05 17:10:00,
2013-07-05 12:15:00,86.0,74.7,29.97,ENE,68,9.0,11.0,69,0.00,,---,0.00,VWS V14.01,2013-07-05 17:15:00,
2013-07-05 12:20:00,86.0,75.1,29.97,NE,47,8.0,11.0,70,0.00,,---,0.00,VWS V14.01,2013-07-05 17:20:00,
2013-07-05 12:25:00,85.4,75.3,29.97,ENE,62,4.0,12.0,72,0.00,,---,0.00,VWS V14.01,2013-07-05 17:25:00,
2013-07-05 12:30:00,85.8,74.9,29.97,ENE,68,4.0,12.0,70,0.00,,---,0.00,VWS V14.01,2013-07-05 17:30:00,
2013-07-05 12:35:00,85.8,75.3,29.96,East,79,6.0,12.0,71,0.00,,---,0.00,VWS V14.01,2013-07-05 17:35:00,
2013-07-05 12:41:00,85.7,75.2,29.96,East,81,6.0,12.0,71,0.00,,---,0.00,VWS V14.01,2013-07-05 17:41:00,
2013-07-05 12:46:00,85.9,75.0,29.96,SE,132,6.0,12.0,70,0.00,,---,0.00,VWS V14.01,2013-07-05 17:46:00,
2013-07-05 12:51:00,85.8,74.9,29.96,ESE,116,5.0,12.0,70,0.00,,---,0.00,VWS V14.01,2013-07-05 17:51:00,
2013-07-05 12:57:00,85.6,73.8,29.96,East,94,4.0,12.0,68,0.00,,---,0.00,VWS V14.01,2013-07-05 17:57:00,
2013-07-05 13:02:00,86.0,74.7,29.96,SSE,155,6.0,7.0,69,0.00,,---,0.00,VWS V14.01,2013-07-05 18:02:00,
2013-07-05 13:07:00,85.9,74.1,29.95,SE,135,3.0,9.0,68,0.00,,---,0.00,VWS V14.01,2013-07-05 18:07:00,
2013-07-05 13:12:00,85.8,73.6,29.95,East,81,5.0,9.0,67,0.00,,---,0.00,VWS V14.01,2013-07-05 18:12:00,
2013-07-05 13:17:00,86.2,74.0,29.96,East,86,8.0,9.0,67,0.00,,---,0.00,VWS V14.01,2013-07-05 18:17:00,
2013-07-05 13:22:00,86.3,73.6,29.96,ESE,106,5.0,9.0,66,0.00,,---,0.00,VWS V14.01,2013-07-05 18:22:00,
2013-07-05 13:27:00,86.5,73.8,29.96,SE,126,7.0,11.0,66,0.00,,---,0.00,VWS V14.01,2013-07-05 18:27:00,
2013-07-05 13:32:00,86.3,72.7,29.95,ESE,105,6.0,11.0,64,0.00,,---,0.00,VWS V14.01,2013-07-05 18:32:00,
2013-07-05 13:37:00,86.2,73.1,29.95,East,98,5.0,11.0,65,0.00,,---,0.00,VWS V14.01,2013-07-05 18:37:00,
2013-07-05 13:42:00,86.2,73.5,29.95,SE,130,6.0,11.0,66,0.00,,---,0.00,VWS V14.01,2013-07-05 18:42:00,
2013-07-05 13:47:00,86.3,74.1,29.95,East,80,9.0,11.0,67,0.00,,---,0.00,VWS V14.01,2013-07-05 18:47:00,
2013-07-05 13:52:00,86.1,74.3,29.95,East,101,4.0,12.0,68,0.00,,---,0.00,VWS V14.01,2013-07-05 18:52:00,
2013-07-05 13:57:00,85.9,74.6,29.95,SSE,167,5.0,14.0,69,0.00,,---,0.00,VWS V14.01,2013-07-05 18:57:00,
2013-07-05 14:02:00,86.4,75.5,29.95,East,90,11.0,11.0,70,0.00,,---,0.00,VWS V14.01,2013-07-05 19:02:00,
2013-07-05 14:07:00,86.2,74.8,29.95,East,86,9.0,12.0,69,0.00,,---,0.00,VWS V14.01,2013-07-05 19:07:00,
2013-07-05 14:12:00,86.3,74.9,29.95,ENE,75,10.0,13.0,69,0.00,,---,0.00,VWS V14.01,2013-07-05 19:12:00,
2013-07-05 14:17:00,86.0,73.3,29.95,ESE,122,7.0,13.0,66,0.00,,---,0.00,VWS V14.01,2013-07-05 19:17:00,
2013-07-05 14:22:00,86.3,74.9,29.94,East,97,11.0,14.0,69,0.00,,---,0.00,VWS V14.01,2013-07-05 19:22:00,
2013-07-05 14:27:00,86.4,75.5,29.94,ENE,74,8.0,14.0,70,0.00,,---,0.00,VWS V14.01,2013-07-05 19:27:00,
2013-07-05 14:32:00,86.3,75.4,29.94,East,79,5.0,14.0,70,0.00,,---,0.00,VWS V14.01,2013-07-05 19:32:00,
2013-07-05 14:37:00,86.2,75.3,29.94,East,88,8.0,14.0,70,0.00,,---,0.00,VWS V14.01,2013-07-05 19:37:00,
2013-07-05 14:42:00,86.2,75.3,29.94,ESE,106,12.0,14.0,70,0.00,,---,0.00,VWS V14.01,2013-07-05 19:42:00,
2013-07-05 14:47:00,86.1,75.6,29.94,East,91,6.0,14.0,71,0.00,,---,0.00,VWS V14.01,2013-07-05 19:47:00,
2013-07-05 14:52:00,86.1,75.2,29.93,East,88,7.0,14.0,70,0.00,,---,0.00,VWS V14.01,2013-07-05 19:52:00,
2013-07-05 14:57:00,86.0,75.5,29.93,SE,127,5.0,14.0,71,0.00,,---,0.00,VWS V14.01,2013-07-05 19:57:00,
2013-07-05 15:02:00,86.2,75.3,29.93,East,85,4.0,11.0,70,0.00,,---,0.00,VWS V14.01,2013-07-05 20:02:00,
2013-07-05 15:07:00,86.1,75.2,29.93,East,98,11.0,13.0,70,0.00,,---,0.00,VWS V14.01,2013-07-05 20:07:00,
2013-07-05 15:13:00,86.3,75.8,29.92,ESE,107,10.0,13.0,71,0.00,,---,0.00,VWS V14.01,2013-07-05 20:13:00,
2013-07-05 15:18:00,86.2,75.7,29.92,SE,131,12.0,13.0,71,0.00,,---,0.00,VWS V14.01,2013-07-05 20:18:00,
2013-07-05 15:19:00,86.1,75.6,29.92,ESE,104,10.0,13.0,71,0.00,,---,0.00,VWS V14.01,2013-07-05 20:19:00,
2013-07-05 15:24:00,85.9,75.0,29.92,East,96,6.0,13.0,70,0.00,,---,0.00,VWS V14.01,2013-07-05 20:24:00,
2013-07-05 15:29:00,86.4,75.0,29.92,East,98,3.0,13.0,69,0.00,,---,0.00,VWS V14.01,2013-07-05 20:29:00,
2013-07-05 15:34:00,86.6,75.2,29.92,SE,126,9.0,13.0,69,0.00,,---,0.00,VWS V14.01,2013-07-05 20:34:00,
2013-07-05 15:39:00,86.5,76.0,29.92,ESE,107,7.0,13.0,71,0.00,,---,0.00,VWS V14.01,2013-07-05 20:39:00,
2013-07-05 15:44:00,86.5,75.6,29.91,SE,124,8.0,13.0,70,0.00,,---,0.00,VWS V14.01,2013-07-05 20:44:00,
2013-07-05 15:49:00,86.5,75.1,29.91,East,85,7.0,14.0,69,0.00,,---,0.00,VWS V14.01,2013-07-05 20:49:00,
2013-07-05 15:54:00,86.5,75.1,29.91,East,92,8.0,14.0,69,0.00,,---,0.00,VWS V14.01,2013-07-05 20:54:00,
2013-07-05 15:59:00,86.5,75.6,29.90,ESE,111,8.0,14.0,70,0.00,,---,0.00,VWS V14.01,2013-07-05 20:59:00,
2013-07-05 16:04:00,86.2,74.4,29.90,ESE,120,6.0,12.0,68,0.00,,---,0.00,VWS V14.01,2013-07-05 21:04:00,
2013-07-05 16:09:00,86.4,75.5,29.90,ESE,117,6.0,14.0,70,0.00,,---,0.00,VWS V14.01,2013-07-05 21:09:00,
2013-07-05 16:14:00,86.1,74.8,29.90,South,172,12.0,14.0,69,0.00,,---,0.00,VWS V14.01,2013-07-05 21:14:00,
2013-07-05 16:19:00,86.4,75.5,29.90,ENE,61,4.0,14.0,70,0.00,,---,0.00,VWS V14.01,2013-07-05 21:19:00,
2013-07-05 16:24:00,86.3,74.1,29.90,SE,134,6.0,14.0,67,0.00,,---,0.00,VWS V14.01,2013-07-05 21:24:00,
2013-07-05 16:29:00,86.5,74.2,29.90,ESE,118,9.0,14.0,67,0.00,,---,0.00,VWS V14.01,2013-07-05 21:29:00,
2013-07-05 16:34:00,86.4,75.5,29.90,ESE,109,7.0,14.0,70,0.00,,---,0.00,VWS V14.01,2013-07-05 21:34:00,
2013-07-05 16:39:00,86.3,75.4,29.90,ESE,116,10.0,15.0,70,0.00,,---,0.00,VWS V14.01,2013-07-05 21:39:00,
2013-07-05 16:44:00,86.0,75.9,29.90,SE,130,7.0,15.0,72,0.00,,---,0.00,VWS V14.01,2013-07-05 21:44:00,
2013-07-05 16:49:00,86.0,76.3,29.90,ENE,68,8.0,15.0,73,0.00,,---,0.00,VWS V14.01,2013-07-05 21:49:00,
2013-07-05 16:50:00,86.1,76.4,29.89,SE,133,9.0,15.0,73,0.00,,---,0.00,VWS V14.01,2013-07-05 21:50:00,
2013-07-05 16:55:00,86.0,76.8,29.89,SE,144,5.0,15.0,74,0.00,,---,0.00,VWS V14.01,2013-07-05 21:55:00,
2013-07-05 17:00:00,85.8,76.6,29.89,ESE,113,7.0,11.0,74,0.00,,---,0.00,VWS V14.01,2013-07-05 22:00:00,
2013-07-05 17:05:00,85.4,76.2,29.89,East,91,10.0,15.0,74,0.00,,---,0.00,VWS V14.01,2013-07-05 22:05:00,
2013-07-05 17:10:00,85.4,77.0,29.89,ESE,110,9.0,15.0,76,0.00,,---,0.00,VWS V14.01,2013-07-05 22:10:00,
2013-07-05 17:15:00,85.5,76.3,29.89,ESE,122,13.0,15.0,74,0.00,,---,0.00,VWS V14.01,2013-07-05 22:15:00,
2013-07-05 17:16:00,85.5,76.3,29.89,East,98,11.0,15.0,74,0.00,,---,0.00,VWS V14.01,2013-07-05 22:16:00,
2013-07-05 17:21:00,85.6,76.0,29.89,ESE,103,10.0,15.0,73,0.00,,---,0.00,VWS V14.01,2013-07-05 22:21:00,
2013-07-05 17:26:00,85.7,76.5,29.88,SE,127,11.0,15.0,74,0.00,,---,0.00,VWS V14.01,2013-07-05 22:26:00,
2013-07-05 17:31:00,85.7,76.1,29.88,East,86,6.0,15.0,73,0.00,,---,0.00,VWS V14.01,2013-07-05 22:31:00,
2013-07-05 17:36:00,85.4,76.2,29.88,ESE,113,6.0,15.0,74,0.00,,---,0.00,VWS V14.01,2013-07-05 22:36:00,
2013-07-05 17:41:00,85.6,76.4,29.88,ESE,122,13.0,16.0,74,0.00,,---,0.00,VWS V14.01,2013-07-05 22:41:00,
2013-07-05 17:46:00,85.6,76.0,29.88,SSE,159,2.0,16.0,73,0.00,,---,0.00,VWS V14.01,2013-07-05 22:46:00,
2013-07-05 17:51:00,85.7,76.5,29.88,ESE,106,12.0,16.0,74,0.00,,---,0.00,VWS V14.01,2013-07-05 22:51:00,
2013-07-05 17:56:00,85.5,75.4,29.88,SE,129,7.0,16.0,72,0.00,,---,0.00,VWS V14.01,2013-07-05 22:56:00,
2013-07-05 18:01:00,85.7,76.1,29.88,ESE,109,4.0,9.0,73,0.00,,---,0.00,VWS V14.01,2013-07-05 23:01:00,
2013-07-05 18:06:00,85.5,75.9,29.88,East,89,9.0,14.0,73,0.00,,---,0.00,VWS V14.01,2013-07-05 23:06:00,
2013-07-05 18:11:00,85.5,76.3,29.88,ESE,106,8.0,14.0,74,0.00,,---,0.00,VWS V14.01,2013-07-05 23:11:00,
2013-07-05 18:16:00,85.4,75.8,29.88,ESE,122,5.0,14.0,73,0.00,,---,0.00,VWS V14.01,2013-07-05 23:16:00,
2013-07-05 18:21:00,85.4,75.8,29.88,ENE,77,7.0,14.0,73,0.00,,---,0.00,VWS V14.01,2013-07-05 23:21:00,
2013-07-05 18:26:00,85.3,76.1,29.88,East,94,4.0,14.0,74,0.00,,---,0.00,VWS V14.01,2013-07-05 23:26:00,
2013-07-05 18:31:00,85.2,75.6,29.88,East,90,12.0,16.0,73,0.00,,---,0.00,VWS V14.01,2013-07-05 23:31:00,
2013-07-05 18:36:00,85.1,75.9,29.87,East,99,6.0,16.0,74,0.00,,---,0.00,VWS V14.01,2013-07-05 23:36:00,
2013-07-05 18:41:00,85.1,75.9,29.87,SE,141,6.0,16.0,74,0.00,,---,0.00,VWS V14.01,2013-07-05 23:41:00,
2013-07-05 18:46:00,85.2,76.0,29.87,SE,144,5.0,16.0,74,0.00,,---,0.00,VWS V14.01,2013-07-05 23:46:00,
2013-07-05 18:51:00,85.0,75.0,29.87,ESE,108,6.0,16.0,72,0.00,,---,0.00,VWS V14.01,2013-07-05 23:51:00,
2013-07-05 18:56:00,85.0,75.0,29.87,ENE,74,4.0,16.0,72,0.00,,---,0.00,VWS V14.01,2013-07-05 23:56:00,
2013-07-05 19:01:00,85.0,75.4,29.88,East,96,11.0,11.0,73,0.00,,---,0.00,VWS V14.01,2013-07-06 00:01:00,
2013-07-05 19:06:00,84.8,75.2,29.88,ENE,77,10.0,14.0,73,0.00,,---,0.00,VWS V14.01,2013-07-06 00:06:00,
2013-07-05 19:11:00,84.9,76.1,29.88,ENE,77,5.0,14.0,75,0.00,,---,0.00,VWS V14.01,2013-07-06 00:11:00,
2013-07-05 19:16:00,84.7,76.3,29.88,ENE,66,6.0,14.0,76,0.00,,---,0.00,VWS V14.01,2013-07-06 00:16:00,
2013-07-05 19:21:00,84.7,76.7,29.88,ESE,107,12.0,14.0,77,0.00,,---,0.00,VWS V14.01,2013-07-06 00:21:00,
2013-07-05 19:26:00,84.4,76.4,29.88,SE,138,7.0,14.0,77,0.00,,---,0.00,VWS V14.01,2013-07-06 00:26:00,
2013-07-05 19:31:00,84.3,76.7,29.88,ESE,105,6.0,14.0,78,0.00,,---,0.00,VWS V14.01,2013-07-06 00:31:00,
2013-07-05 19:36:00,84.2,76.2,29.88,ESE,102,3.0,14.0,77,0.00,,---,0.00,VWS V14.01,2013-07-06 00:36:00,
2013-07-05 19:41:00,84.1,75.7,29.89,ESE,117,10.0,16.0,76,0.00,,---,0.00,VWS V14.01,2013-07-06 00:41:00,
2013-07-05 19:47:00,84.0,76.0,29.89,East,87,13.0,16.0,77,0.00,,---,0.00,VWS V14.01,2013-07-06 00:47:00,
2013-07-05 19:52:00,83.8,75.8,29.89,East,86,9.0,16.0,77,0.00,,---,0.00,VWS V14.01,2013-07-06 00:52:00,
2013-07-05 19:57:00,83.8,76.2,29.89,East,85,8.0,16.0,78,0.00,,---,0.00,VWS V14.01,2013-07-06 00:57:00,
2013-07-05 20:02:00,83.8,77.0,29.89,ENE,76,9.0,9.0,80,0.00,,---,0.00,VWS V14.01,2013-07-06 01:02:00,
2013-07-05 20:07:00,83.7,76.9,29.89,East,94,6.0,12.0,80,0.00,,---,0.00,VWS V14.01,2013-07-06 01:07:00,
2013-07-05 20:12:00,83.5,76.7,29.89,East,79,4.0,15.0,80,0.00,,---,0.00,VWS V14.01,2013-07-06 01:12:00,
2013-07-05 20:17:00,83.4,76.6,29.89,East,98,10.0,15.0,80,0.00,,---,0.00,VWS V14.01,2013-07-06 01:17:00,
2013-07-05 20:22:00,83.3,76.5,29.89,ESE,113,12.0,15.0,80,0.00,,---,0.00,VWS V14.01,2013-07-06 01:22:00,
2013-07-05 20:27:00,83.3,76.5,29.89,ESE,107,11.0,15.0,80,0.00,,---,0.00,VWS V14.01,2013-07-06 01:27:00,
2013-07-05 20:32:00,83.3,76.5,29.89,ESE,118,8.0,15.0,80,0.00,,---,0.00,VWS V14.01,2013-07-06 01:32:00,
2013-07-05 20:38:00,83.3,76.5,29.89,ENE,75,5.0,15.0,80,0.00,,---,0.00,VWS V14.01,2013-07-06 01:38:00,
2013-07-05 20:43:00,83.3,76.9,29.89,East,83,6.0,17.0,81,0.00,,---,0.00,VWS V14.01,2013-07-06 01:43:00,
2013-07-05 20:48:00,83.3,77.2,29.89,East,91,7.0,17.0,82,0.00,,---,0.00,VWS V14.01,2013-07-06 01:48:00,
2013-07-05 20:53:00,83.2,77.1,29.89,ESE,108,13.0,17.0,82,0.00,,---,0.00,VWS V14.01,2013-07-06 01:53:00,
2013-07-05 20:58:00,83.1,77.0,29.89,East,96,12.0,17.0,82,0.00,,---,0.00,VWS V14.01,2013-07-06 01:58:00,
2013-07-05 21:04:00,83.1,76.7,29.89,East,90,8.0,11.0,81,0.00,,---,0.00,VWS V14.01,2013-07-06 02:04:00,
2013-07-05 21:09:00,83.1,76.3,29.89,East,92,8.0,15.0,80,0.00,,---,0.00,VWS V14.01,2013-07-06 02:09:00,
2013-07-05 21:14:00,83.1,76.7,29.89,ENE,74,8.0,15.0,81,0.00,,---,0.00,VWS V14.01,2013-07-06 02:14:00,
2013-07-05 21:19:00,83.1,76.3,29.89,ESE,115,7.0,15.0,80,0.00,,---,0.00,VWS V14.01,2013-07-06 02:19:00,
2013-07-05 21:24:00,83.1,76.3,29.89,East,94,6.0,15.0,80,0.00,,---,0.00,VWS V14.01,2013-07-06 02:24:00,
2013-07-05 21:29:00,83.1,75.9,29.90,SE,129,8.0,15.0,79,0.00,,---,0.00,VWS V14.01,2013-07-06 02:29:00,
2013-07-05 21:34:00,83.2,76.0,29.90,East,82,7.0,15.0,79,0.00,,---,0.00,VWS V14.01,2013-07-06 02:34:00,
2013-07-05 21:39:00,83.1,75.9,29.90,ESE,109,8.0,15.0,79,0.00,,---,0.00,VWS V14.01,2013-07-06 02:39:00,
2013-07-05 21:44:00,83.1,75.9,29.90,SE,126,9.0,15.0,79,0.00,,---,0.00,VWS V14.01,2013-07-06 02:44:00,
2013-07-05 21:49:00,83.0,75.8,29.90,SE,139,5.0,15.0,79,0.00,,---,0.00,VWS V14.01,2013-07-06 02:49:00,
2013-07-05 21:54:00,83.0,75.8,29.90,ESE,113,10.0,15.0,79,0.00,,---,0.00,VWS V14.01,2013-07-06 02:54:00,
2013-07-05 21:59:00,83.0,75.8,29.90,SE,139,4.0,15.0,79,0.00,,---,0.00,VWS V14.01,2013-07-06 02:59:00,
2013-07-05 22:04:00,83.1,76.3,29.90,ESE,104,10.0,13.0,80,0.00,,---,0.00,VWS V14.01,2013-07-06 03:04:00,
2013-07-05 22:09:00,83.1,76.7,29.91,SE,129,4.0,13.0,81,0.00,,---,0.00,VWS V14.01,2013-07-06 03:09:00,
2013-07-05 22:14:00,83.1,76.7,29.90,ESE,117,5.0,13.0,81,0.00,,---,0.00,VWS V14.01,2013-07-06 03:14:00,
2013-07-05 22:20:00,83.0,75.8,29.90,ESE,117,4.0,13.0,79,0.00,,---,0.00,VWS V14.01,2013-07-06 03:20:00,
2013-07-05 22:25:00,83.1,76.3,29.91,SE,139,4.0,14.0,80,0.00,,---,0.00,VWS V14.01,2013-07-06 03:25:00,
2013-07-05 22:30:00,83.1,76.3,29.91,ESE,115,12.0,14.0,80,0.00,,---,0.00,VWS V14.01,2013-07-06 03:30:00,
2013-07-05 22:35:00,83.1,76.3,29.91,ESE,105,10.0,14.0,80,0.00,,---,0.00,VWS V14.01,2013-07-06 03:35:00,
2013-07-05 22:40:00,83.0,76.6,29.91,ESE,103,9.0,14.0,81,0.00,,---,0.00,VWS V14.01,2013-07-06 03:40:00,
2013-07-05 22:46:00,83.0,76.9,29.91,ESE,110,6.0,14.0,82,0.00,,---,0.00,VWS V14.01,2013-07-06 03:46:00,
2013-07-05 22:48:00,83.0,76.9,29.91,ESE,103,9.0,14.0,82,0.00,,---,0.00,VWS V14.01,2013-07-06 03:48:00,
2013-07-05 22:55:00,83.0,76.9,29.91,SE,128,5.0,14.0,82,0.00,,---,0.00,VWS V14.01,2013-07-06 03:55:00,
2013-07-05 23:00:00,82.9,76.5,29.91,ESE,107,5.0,14.0,81,0.00,,---,0.00,VWS V14.01,2013-07-06 04:00:00,
2013-07-05 23:01:00,82.9,76.5,29.91,ESE,122,7.0,7.0,81,0.00,,---,0.00,VWS V14.01,2013-07-06 04:01:00,
2013-07-05 23:02:00,82.9,76.5,29.91,ESE,112,8.0,8.0,81,0.00,,---,0.00,VWS V14.01,2013-07-06 04:02:00,
2013-07-05 23:07:00,82.9,76.1,29.91,ESE,104,6.0,10.0,80,0.00,,---,0.00,VWS V14.01,2013-07-06 04:07:00,
2013-07-05 23:12:00,82.8,76.0,29.92,SE,127,10.0,10.0,80,0.00,,---,0.00,VWS V14.01,2013-07-06 04:12:00,
2013-07-05 23:17:00,82.9,75.7,29.92,East,92,7.0,13.0,79,0.00,,---,0.00,VWS V14.01,2013-07-06 04:17:00,
2013-07-05 23:22:00,82.9,75.7,29.91,SE,125,7.0,13.0,79,0.00,,---,0.00,VWS V14.01,2013-07-06 04:22:00,
2013-07-05 23:27:00,82.9,76.1,29.92,SE,134,6.0,13.0,80,0.00,,---,0.00,VWS V14.01,2013-07-06 04:27:00,
2013-07-05 23:32:00,82.9,76.5,29.91,SSE,167,7.0,13.0,81,0.00,,---,0.00,VWS V14.01,2013-07-06 04:32:00,
2013-07-05 23:37:00,82.9,76.5,29.92,ENE,75,3.0,13.0,81,0.00,,---,0.00,VWS V14.01,2013-07-06 04:37:00,
2013-07-05 23:42:00,82.8,76.4,29.92,SSE,148,4.0,13.0,81,0.00,,---,0.00,VWS V14.01,2013-07-06 04:42:00,
2013-07-05 23:47:00,82.8,76.8,29.92,SE,125,5.0,13.0,82,0.00,,---,0.00,VWS V14.01,2013-07-06 04:47:00,
2013-07-05 23:52:00,82.8,76.8,29.92,ESE,103,6.0,13.0,82,0.00,,---,0.00,VWS V14.01,2013-07-06 04:52:00,
2013-07-05 23:57:00,82.8,76.8,29.92,ESE,103,3.0,13.0,82,0.00,,---,0.00,VWS V14.01,2013-07-06 04:57:00,